sensor_id;sensor_type;location;lat;lon;timestamp;P1;durP1;ratioP1;P2;durP2;ratioP2
31746;SDS011;18319;48.974;8.462;2022-11-09T00:02:21;2.75;;;2.35;;
31746;SDS011;18319;48.974;8.462;2022-11-09T00:04:48;3.88;;;2.45;;
31746;SDS011;18319;48.974;8.462;2022-11-09T00:07:15;4.13;;;2.67;;
31746;SDS011;18319;48.974;8.462;2022-11-09T00:09:42;2.72;;;2.15;;
31746;SDS011;18319;48.974;8.462;2022-11-09T00:12:11;2.22;;;1.83;;
31746;SDS011;18319;48.974;8.462;2022-11-09T00:14:38;3.50;;;2.13;;
31746;SDS011;18319;48.974;8.462;2022-11-09T00:17:05;4.00;;;2.25;;
31746;SDS011;18319;48.974;8.462;2022-11-09T00:19:32;3.85;;;2.00;;
31746;SDS011;18319;48.974;8.462;2022-11-09T00:21:59;2.63;;;1.90;;
31746;SDS011;18319;48.974;8.462;2022-11-09T00:24:26;3.72;;;2.20;;
31746;SDS011;18319;48.974;8.462;2022-11-09T00:26:53;3.08;;;2.10;;
31746;SDS011;18319;48.974;8.462;2022-11-09T00:29:22;1.80;;;1.67;;
31746;SDS011;18319;48.974;8.462;2022-11-09T00:31:49;4.28;;;1.70;;
31746;SDS011;18319;48.974;8.462;2022-11-09T00:34:16;3.63;;;1.70;;
31746;SDS011;18319;48.974;8.462;2022-11-09T00:36:43;2.03;;;1.75;;
31746;SDS011;18319;48.974;8.462;2022-11-09T00:39:10;1.80;;;1.70;;
31746;SDS011;18319;48.974;8.462;2022-11-09T00:41:37;2.25;;;1.83;;
31746;SDS011;18319;48.974;8.462;2022-11-09T00:44:04;2.67;;;2.05;;
31746;SDS011;18319;48.974;8.462;2022-11-09T00:46:33;4.72;;;2.22;;
31746;SDS011;18319;48.974;8.462;2022-11-09T00:49:00;3.47;;;2.72;;
31746;SDS011;18319;48.974;8.462;2022-11-09T00:51:27;3.20;;;2.83;;
31746;SDS011;18319;48.974;8.462;2022-11-09T00:53:54;3.53;;;2.85;;
31746;SDS011;18319;48.974;8.462;2022-11-09T00:56:22;3.88;;;3.20;;
31746;SDS011;18319;48.974;8.462;2022-11-09T00:58:51;5.00;;;3.00;;
31746;SDS011;18319;48.974;8.462;2022-11-09T01:01:18;7.18;;;2.60;;
31746;SDS011;18319;48.974;8.462;2022-11-09T01:03:47;4.45;;;3.75;;
31746;SDS011;18319;48.974;8.462;2022-11-09T01:06:14;3.80;;;3.50;;
31746;SDS011;18319;48.974;8.462;2022-11-09T01:08:42;4.68;;;3.45;;
31746;SDS011;18319;48.974;8.462;2022-11-09T01:11:09;4.45;;;3.90;;
31746;SDS011;18319;48.974;8.462;2022-11-09T01:13:36;4.68;;;3.80;;
31746;SDS011;18319;48.974;8.462;2022-11-09T01:16:04;4.80;;;4.30;;
31746;SDS011;18319;48.974;8.462;2022-11-09T01:18:32;5.72;;;4.72;;
31746;SDS011;18319;48.974;8.462;2022-11-09T01:21:00;4.38;;;3.97;;
31746;SDS011;18319;48.974;8.462;2022-11-09T01:23:28;4.72;;;4.05;;
31746;SDS011;18319;48.974;8.462;2022-11-09T01:25:58;6.10;;;4.57;;
31746;SDS011;18319;48.974;8.462;2022-11-09T01:28:25;5.10;;;4.60;;
31746;SDS011;18319;48.974;8.462;2022-11-09T01:30:53;6.00;;;4.40;;
31746;SDS011;18319;48.974;8.462;2022-11-09T01:33:20;4.63;;;4.30;;
31746;SDS011;18319;48.974;8.462;2022-11-09T01:35:47;6.72;;;4.70;;
31746;SDS011;18319;48.974;8.462;2022-11-09T01:38:15;4.95;;;4.55;;
31746;SDS011;18319;48.974;8.462;2022-11-09T01:40:42;4.70;;;4.30;;
31746;SDS011;18319;48.974;8.462;2022-11-09T01:43:13;6.18;;;4.72;;
31746;SDS011;18319;48.974;8.462;2022-11-09T01:45:41;7.72;;;5.07;;
31746;SDS011;18319;48.974;8.462;2022-11-09T01:48:10;7.72;;;3.65;;
31746;SDS011;18319;48.974;8.462;2022-11-09T01:50:38;4.63;;;4.22;;
31746;SDS011;18319;48.974;8.462;2022-11-09T01:53:07;4.22;;;3.90;;
31746;SDS011;18319;48.974;8.462;2022-11-09T01:55:36;5.20;;;4.10;;
31746;SDS011;18319;48.974;8.462;2022-11-09T01:58:04;4.22;;;3.92;;
31746;SDS011;18319;48.974;8.462;2022-11-09T02:00:33;3.60;;;3.25;;
31746;SDS011;18319;48.974;8.462;2022-11-09T02:03:03;4.28;;;3.88;;
31746;SDS011;18319;48.974;8.462;2022-11-09T02:05:31;5.75;;;4.22;;
31746;SDS011;18319;48.974;8.462;2022-11-09T02:08:00;3.40;;;2.90;;
31746;SDS011;18319;48.974;8.462;2022-11-09T02:10:29;3.55;;;3.25;;
31746;SDS011;18319;48.974;8.462;2022-11-09T02:12:58;3.35;;;3.13;;
31746;SDS011;18319;48.974;8.462;2022-11-09T02:15:26;5.68;;;3.55;;
31746;SDS011;18319;48.974;8.462;2022-11-09T02:17:53;6.57;;;3.72;;
31746;SDS011;18319;48.974;8.462;2022-11-09T02:20:22;4.38;;;3.78;;
31746;SDS011;18319;48.974;8.462;2022-11-09T02:22:50;4.32;;;3.92;;
31746;SDS011;18319;48.974;8.462;2022-11-09T02:25:17;4.50;;;3.83;;
31746;SDS011;18319;48.974;8.462;2022-11-09T02:27:44;3.97;;;3.67;;
31746;SDS011;18319;48.974;8.462;2022-11-09T02:30:12;5.57;;;3.53;;
31746;SDS011;18319;48.974;8.462;2022-11-09T02:32:40;7.13;;;3.40;;
31746;SDS011;18319;48.974;8.462;2022-11-09T02:35:08;5.10;;;3.30;;
31746;SDS011;18319;48.974;8.462;2022-11-09T02:37:38;3.33;;;3.03;;
31746;SDS011;18319;48.974;8.462;2022-11-09T02:40:06;3.30;;;2.92;;
31746;SDS011;18319;48.974;8.462;2022-11-09T02:42:35;2.45;;;2.25;;
31746;SDS011;18319;48.974;8.462;2022-11-09T02:45:02;2.17;;;1.98;;
31746;SDS011;18319;48.974;8.462;2022-11-09T02:47:29;2.85;;;2.58;;
31746;SDS011;18319;48.974;8.462;2022-11-09T02:49:56;2.83;;;2.28;;
31746;SDS011;18319;48.974;8.462;2022-11-09T02:52:23;3.70;;;2.42;;
31746;SDS011;18319;48.974;8.462;2022-11-09T02:54:52;2.85;;;2.50;;
31746;SDS011;18319;48.974;8.462;2022-11-09T02:57:19;2.75;;;2.58;;
31746;SDS011;18319;48.974;8.462;2022-11-09T02:59:46;4.30;;;3.25;;
31746;SDS011;18319;48.974;8.462;2022-11-09T03:02:13;3.75;;;3.40;;
31746;SDS011;18319;48.974;8.462;2022-11-09T03:04:40;3.58;;;3.30;;
31746;SDS011;18319;48.974;8.462;2022-11-09T03:07:07;3.70;;;3.38;;
31746;SDS011;18319;48.974;8.462;2022-11-09T03:09:34;3.75;;;3.40;;
31746;SDS011;18319;48.974;8.462;2022-11-09T03:12:03;3.92;;;3.25;;
31746;SDS011;18319;48.974;8.462;2022-11-09T03:14:52;4.57;;;3.00;;
31746;SDS011;18319;48.974;8.462;2022-11-09T03:17:19;4.40;;;3.35;;
31746;SDS011;18319;48.974;8.462;2022-11-09T03:19:47;4.43;;;3.17;;
31746;SDS011;18319;48.974;8.462;2022-11-09T03:22:14;4.00;;;3.35;;
31746;SDS011;18319;48.974;8.462;2022-11-09T03:24:41;2.78;;;2.58;;
31746;SDS011;18319;48.974;8.462;2022-11-09T03:27:09;2.97;;;2.67;;
31746;SDS011;18319;48.974;8.462;2022-11-09T03:29:36;2.83;;;2.63;;
31746;SDS011;18319;48.974;8.462;2022-11-09T03:32:04;3.30;;;3.10;;
31746;SDS011;18319;48.974;8.462;2022-11-09T03:34:31;4.53;;;2.80;;
31746;SDS011;18319;48.974;8.462;2022-11-09T03:36:58;3.25;;;2.08;;
31746;SDS011;18319;48.974;8.462;2022-11-09T03:39:25;3.53;;;2.67;;
31746;SDS011;18319;48.974;8.462;2022-11-09T03:41:52;2.80;;;2.60;;
31746;SDS011;18319;48.974;8.462;2022-11-09T03:44:21;2.67;;;2.25;;
31746;SDS011;18319;48.974;8.462;2022-11-09T03:46:48;2.83;;;2.63;;
31746;SDS011;18319;48.974;8.462;2022-11-09T03:49:15;2.63;;;2.42;;
31746;SDS011;18319;48.974;8.462;2022-11-09T03:51:42;5.30;;;2.58;;
31746;SDS011;18319;48.974;8.462;2022-11-09T03:54:09;2.97;;;2.78;;
31746;SDS011;18319;48.974;8.462;2022-11-09T03:56:36;2.60;;;2.40;;
31746;SDS011;18319;48.974;8.462;2022-11-09T03:59:03;2.97;;;2.33;;
31746;SDS011;18319;48.974;8.462;2022-11-09T04:01:31;2.25;;;2.05;;
31746;SDS011;18319;48.974;8.462;2022-11-09T04:03:59;2.95;;;1.98;;
31746;SDS011;18319;48.974;8.462;2022-11-09T04:06:26;2.35;;;1.67;;
31746;SDS011;18319;48.974;8.462;2022-11-09T04:08:53;4.03;;;1.83;;
31746;SDS011;18319;48.974;8.462;2022-11-09T04:11:20;2.38;;;1.77;;
31746;SDS011;18319;48.974;8.462;2022-11-09T04:13:47;3.17;;;1.58;;
31746;SDS011;18319;48.974;8.462;2022-11-09T04:16:14;1.90;;;1.70;;
31746;SDS011;18319;48.974;8.462;2022-11-09T04:18:42;1.80;;;1.70;;
31746;SDS011;18319;48.974;8.462;2022-11-09T04:21:09;2.13;;;1.77;;
31746;SDS011;18319;48.974;8.462;2022-11-09T04:23:37;2.83;;;1.50;;
31746;SDS011;18319;48.974;8.462;2022-11-09T04:26:04;4.75;;;1.98;;
31746;SDS011;18319;48.974;8.462;2022-11-09T04:28:31;2.35;;;2.15;;
31746;SDS011;18319;48.974;8.462;2022-11-09T04:33:33;2.40;;;1.92;;
31746;SDS011;18319;48.974;8.462;2022-11-09T04:36:02;2.17;;;2.03;;
31746;SDS011;18319;48.974;8.462;2022-11-09T04:38:29;4.35;;;2.38;;
31746;SDS011;18319;48.974;8.462;2022-11-09T04:40:58;1.67;;;1.58;;
31746;SDS011;18319;48.974;8.462;2022-11-09T04:43:26;2.53;;;1.90;;
31746;SDS011;18319;48.974;8.462;2022-11-09T04:45:53;3.17;;;2.53;;
31746;SDS011;18319;48.974;8.462;2022-11-09T04:48:20;2.42;;;2.22;;
31746;SDS011;18319;48.974;8.462;2022-11-09T04:50:47;2.42;;;1.80;;
31746;SDS011;18319;48.974;8.462;2022-11-09T04:53:16;3.53;;;1.85;;
31746;SDS011;18319;48.974;8.462;2022-11-09T04:55:43;3.63;;;1.98;;
31746;SDS011;18319;48.974;8.462;2022-11-09T04:58:10;2.38;;;1.75;;
31746;SDS011;18319;48.974;8.462;2022-11-09T05:00:37;2.38;;;1.52;;
31746;SDS011;18319;48.974;8.462;2022-11-09T05:03:05;1.80;;;1.70;;
31746;SDS011;18319;48.974;8.462;2022-11-09T05:05:32;1.40;;;1.40;;
31746;SDS011;18319;48.974;8.462;2022-11-09T05:07:59;1.35;;;1.25;;
31746;SDS011;18319;48.974;8.462;2022-11-09T05:10:28;1.55;;;1.25;;
31746;SDS011;18319;48.974;8.462;2022-11-09T05:12:58;1.52;;;1.40;;
31746;SDS011;18319;48.974;8.462;2022-11-09T05:15:26;2.17;;;1.40;;
31746;SDS011;18319;48.974;8.462;2022-11-09T05:17:53;1.63;;;1.52;;
31746;SDS011;18319;48.974;8.462;2022-11-09T05:20:20;1.15;;;1.15;;
31746;SDS011;18319;48.974;8.462;2022-11-09T05:22:47;1.58;;;1.48;;
31746;SDS011;18319;48.974;8.462;2022-11-09T05:25:33;1.40;;;1.40;;
31746;SDS011;18319;48.974;8.462;2022-11-09T05:28:00;0.98;;;0.98;;
31746;SDS011;18319;48.974;8.462;2022-11-09T05:30:27;2.03;;;1.33;;
31746;SDS011;18319;48.974;8.462;2022-11-09T05:32:54;1.30;;;1.23;;
31746;SDS011;18319;48.974;8.462;2022-11-09T05:35:21;2.08;;;1.52;;
31746;SDS011;18319;48.974;8.462;2022-11-09T05:37:49;1.75;;;1.65;;
31746;SDS011;18319;48.974;8.462;2022-11-09T05:40:16;2.50;;;1.60;;
31746;SDS011;18319;48.974;8.462;2022-11-09T05:42:45;1.52;;;1.42;;
31746;SDS011;18319;48.974;8.462;2022-11-09T05:45:12;2.38;;;1.40;;
31746;SDS011;18319;48.974;8.462;2022-11-09T05:47:40;12.00;;;1.70;;
31746;SDS011;18319;48.974;8.462;2022-11-09T05:50:08;2.08;;;1.20;;
31746;SDS011;18319;48.974;8.462;2022-11-09T05:52:35;2.90;;;2.63;;
31746;SDS011;18319;48.974;8.462;2022-11-09T05:55:03;1.52;;;1.33;;
31746;SDS011;18319;48.974;8.462;2022-11-09T05:57:30;1.23;;;1.10;;
31746;SDS011;18319;48.974;8.462;2022-11-09T05:59:59;1.60;;;1.45;;
31746;SDS011;18319;48.974;8.462;2022-11-09T06:02:29;3.15;;;2.15;;
31746;SDS011;18319;48.974;8.462;2022-11-09T06:04:56;7.65;;;6.70;;
31746;SDS011;18319;48.974;8.462;2022-11-09T06:07:23;2.88;;;2.03;;
31746;SDS011;18319;48.974;8.462;2022-11-09T06:09:50;0.80;;;0.80;;
31746;SDS011;18319;48.974;8.462;2022-11-09T06:12:17;2.72;;;0.80;;
31746;SDS011;18319;48.974;8.462;2022-11-09T06:14:44;0.80;;;0.80;;
31746;SDS011;18319;48.974;8.462;2022-11-09T06:17:13;1.52;;;0.70;;
31746;SDS011;18319;48.974;8.462;2022-11-09T06:19:39;0.55;;;0.55;;
31746;SDS011;18319;48.974;8.462;2022-11-09T06:22:07;0.30;;;0.30;;
31746;SDS011;18319;48.974;8.462;2022-11-09T06:24:34;0.40;;;0.40;;
31746;SDS011;18319;48.974;8.462;2022-11-09T06:27:01;0.95;;;0.40;;
31746;SDS011;18319;48.974;8.462;2022-11-09T06:29:28;0.30;;;0.22;;
31746;SDS011;18319;48.974;8.462;2022-11-09T06:31:55;0.40;;;0.20;;
31746;SDS011;18319;48.974;8.462;2022-11-09T06:34:23;2.03;;;0.30;;
31746;SDS011;18319;48.974;8.462;2022-11-09T06:36:51;1.00;;;0.20;;
31746;SDS011;18319;48.974;8.462;2022-11-09T06:39:18;0.10;;;0.10;;
31746;SDS011;18319;48.974;8.462;2022-11-09T06:41:45;0.45;;;0.20;;
31746;SDS011;18319;48.974;8.462;2022-11-09T06:44:12;0.40;;;0.10;;
31746;SDS011;18319;48.974;8.462;2022-11-09T06:46:39;1.27;;;0.45;;
31746;SDS011;18319;48.974;8.462;2022-11-09T06:49:06;0.10;;;0.10;;
31746;SDS011;18319;48.974;8.462;2022-11-09T06:51:35;0.35;;;0.30;;
31746;SDS011;18319;48.974;8.462;2022-11-09T06:54:02;0.20;;;0.20;;
31746;SDS011;18319;48.974;8.462;2022-11-09T06:56:29;0.10;;;0.10;;
31746;SDS011;18319;48.974;8.462;2022-11-09T06:58:56;0.20;;;0.20;;
31746;SDS011;18319;48.974;8.462;2022-11-09T07:01:25;0.22;;;0.20;;
31746;SDS011;18319;48.974;8.462;2022-11-09T07:03:52;2.78;;;2.58;;
31746;SDS011;18319;48.974;8.462;2022-11-09T07:06:19;3.33;;;3.13;;
31746;SDS011;18319;48.974;8.462;2022-11-09T07:08:48;10.60;;;9.80;;
31746;SDS011;18319;48.974;8.462;2022-11-09T07:11:15;6.15;;;5.80;;
31746;SDS011;18319;48.974;8.462;2022-11-09T07:13:43;2.35;;;2.25;;
31746;SDS011;18319;48.974;8.462;2022-11-09T07:16:10;1.08;;;0.70;;
31746;SDS011;18319;48.974;8.462;2022-11-09T07:18:41;1.17;;;0.82;;
31746;SDS011;18319;48.974;8.462;2022-11-09T07:21:08;0.80;;;0.80;;
31746;SDS011;18319;48.974;8.462;2022-11-09T07:23:35;0.80;;;0.80;;
31746;SDS011;18319;48.974;8.462;2022-11-09T07:26:03;0.93;;;0.93;;
31746;SDS011;18319;48.974;8.462;2022-11-09T07:28:30;11.35;;;10.50;;
31746;SDS011;18319;48.974;8.462;2022-11-09T07:30:57;5.78;;;5.47;;
31746;SDS011;18319;48.974;8.462;2022-11-09T07:33:25;2.08;;;1.98;;
31746;SDS011;18319;48.974;8.462;2022-11-09T07:35:54;1.92;;;1.70;;
31746;SDS011;18319;48.974;8.462;2022-11-09T07:38:22;1.17;;;1.17;;
31746;SDS011;18319;48.974;8.462;2022-11-09T07:40:50;2.58;;;2.00;;
31746;SDS011;18319;48.974;8.462;2022-11-09T07:43:18;1.17;;;1.08;;
31746;SDS011;18319;48.974;8.462;2022-11-09T07:45:45;0.70;;;0.70;;
31746;SDS011;18319;48.974;8.462;2022-11-09T07:48:12;1.02;;;1.00;;
31746;SDS011;18319;48.974;8.462;2022-11-09T07:50:39;1.30;;;1.20;;
31746;SDS011;18319;48.974;8.462;2022-11-09T07:53:07;1.10;;;1.10;;
31746;SDS011;18319;48.974;8.462;2022-11-09T07:55:36;1.80;;;1.45;;
31746;SDS011;18319;48.974;8.462;2022-11-09T07:58:04;0.93;;;0.93;;
31746;SDS011;18319;48.974;8.462;2022-11-09T08:00:33;0.98;;;0.90;;
31746;SDS011;18319;48.974;8.462;2022-11-09T08:03:01;0.90;;;0.90;;
31746;SDS011;18319;48.974;8.462;2022-11-09T08:05:28;1.17;;;1.10;;
31746;SDS011;18319;48.974;8.462;2022-11-09T08:07:55;0.80;;;0.80;;
31746;SDS011;18319;48.974;8.462;2022-11-09T08:10:22;0.90;;;0.90;;
31746;SDS011;18319;48.974;8.462;2022-11-09T08:12:53;0.82;;;0.80;;
31746;SDS011;18319;48.974;8.462;2022-11-09T08:15:20;2.05;;;0.80;;
31746;SDS011;18319;48.974;8.462;2022-11-09T08:17:48;0.98;;;0.50;;
31746;SDS011;18319;48.974;8.462;2022-11-09T08:20:16;0.60;;;0.60;;
31746;SDS011;18319;48.974;8.462;2022-11-09T08:22:44;0.80;;;0.80;;
31746;SDS011;18319;48.974;8.462;2022-11-09T08:25:12;0.95;;;0.60;;
31746;SDS011;18319;48.974;8.462;2022-11-09T08:27:39;1.20;;;0.60;;
31746;SDS011;18319;48.974;8.462;2022-11-09T08:30:09;0.70;;;0.47;;
31746;SDS011;18319;48.974;8.462;2022-11-09T08:32:36;2.55;;;0.40;;
31746;SDS011;18319;48.974;8.462;2022-11-09T08:35:05;0.60;;;0.60;;
31746;SDS011;18319;48.974;8.462;2022-11-09T08:37:34;1.23;;;0.50;;
31746;SDS011;18319;48.974;8.462;2022-11-09T08:40:01;0.30;;;0.30;;
31746;SDS011;18319;48.974;8.462;2022-11-09T08:42:28;0.60;;;0.28;;
31746;SDS011;18319;48.974;8.462;2022-11-09T08:44:55;1.08;;;0.40;;
31746;SDS011;18319;48.974;8.462;2022-11-09T08:47:22;0.70;;;0.30;;
31746;SDS011;18319;48.974;8.462;2022-11-09T08:49:49;0.30;;;0.30;;
31746;SDS011;18319;48.974;8.462;2022-11-09T08:52:18;0.20;;;0.20;;
31746;SDS011;18319;48.974;8.462;2022-11-09T08:54:45;0.40;;;0.40;;
31746;SDS011;18319;48.974;8.462;2022-11-09T08:57:12;1.45;;;0.38;;
31746;SDS011;18319;48.974;8.462;2022-11-09T08:59:39;0.68;;;0.50;;
31746;SDS011;18319;48.974;8.462;2022-11-09T09:02:07;0.85;;;0.28;;
31746;SDS011;18319;48.974;8.462;2022-11-09T09:04:34;0.50;;;0.50;;
31746;SDS011;18319;48.974;8.462;2022-11-09T09:07:01;1.35;;;0.60;;
31746;SDS011;18319;48.974;8.462;2022-11-09T09:09:30;0.77;;;0.50;;
31746;SDS011;18319;48.974;8.462;2022-11-09T09:11:57;0.70;;;0.70;;
31746;SDS011;18319;48.974;8.462;2022-11-09T09:14:24;0.45;;;0.45;;
31746;SDS011;18319;48.974;8.462;2022-11-09T09:16:52;0.43;;;0.32;;
31746;SDS011;18319;48.974;8.462;2022-11-09T09:19:19;2.97;;;0.45;;
31746;SDS011;18319;48.974;8.462;2022-11-09T09:21:46;0.98;;;0.52;;
31746;SDS011;18319;48.974;8.462;2022-11-09T09:24:13;0.95;;;0.60;;
31746;SDS011;18319;48.974;8.462;2022-11-09T09:26:42;0.80;;;0.80;;
31746;SDS011;18319;48.974;8.462;2022-11-09T09:29:09;1.13;;;1.02;;
31746;SDS011;18319;48.974;8.462;2022-11-09T09:31:37;1.00;;;0.80;;
31746;SDS011;18319;48.974;8.462;2022-11-09T09:34:04;1.60;;;0.88;;
31746;SDS011;18319;48.974;8.462;2022-11-09T09:36:31;1.48;;;0.50;;
31746;SDS011;18319;48.974;8.462;2022-11-09T09:38:59;2.47;;;0.50;;
31746;SDS011;18319;48.974;8.462;2022-11-09T09:41:27;0.70;;;0.60;;
31746;SDS011;18319;48.974;8.462;2022-11-09T09:44:17;0.63;;;0.50;;
31746;SDS011;18319;48.974;8.462;2022-11-09T09:46:47;0.50;;;0.50;;
31746;SDS011;18319;48.974;8.462;2022-11-09T09:49:16;1.25;;;1.20;;
31746;SDS011;18319;48.974;8.462;2022-11-09T09:51:46;1.65;;;1.52;;
31746;SDS011;18319;48.974;8.462;2022-11-09T09:54:16;1.33;;;0.95;;
31746;SDS011;18319;48.974;8.462;2022-11-09T09:56:44;3.42;;;2.17;;
31746;SDS011;18319;48.974;8.462;2022-11-09T09:59:17;1.90;;;0.63;;
31746;SDS011;18319;48.974;8.462;2022-11-09T10:01:46;0.57;;;0.57;;
31746;SDS011;18319;48.974;8.462;2022-11-09T10:04:14;0.77;;;0.77;;
31746;SDS011;18319;48.974;8.462;2022-11-09T10:06:45;0.68;;;0.52;;
31746;SDS011;18319;48.974;8.462;2022-11-09T10:09:24;0.47;;;0.45;;
31746;SDS011;18319;48.974;8.462;2022-11-09T10:11:55;1.25;;;0.50;;
31746;SDS011;18319;48.974;8.462;2022-11-09T10:17:13;1.77;;;0.50;;
31746;SDS011;18319;48.974;8.462;2022-11-09T10:19:50;2.70;;;2.60;;
31746;SDS011;18319;48.974;8.462;2022-11-09T10:22:28;1.63;;;1.52;;
31746;SDS011;18319;48.974;8.462;2022-11-09T10:24:59;0.45;;;0.45;;
31746;SDS011;18319;48.974;8.462;2022-11-09T10:27:29;0.60;;;0.60;;
31746;SDS011;18319;48.974;8.462;2022-11-09T10:29:58;2.58;;;0.63;;
31746;SDS011;18319;48.974;8.462;2022-11-09T10:32:28;2.13;;;0.82;;
31746;SDS011;18319;48.974;8.462;2022-11-09T10:34:59;0.98;;;0.95;;
31746;SDS011;18319;48.974;8.462;2022-11-09T10:37:30;1.38;;;0.63;;
31746;SDS011;18319;48.974;8.462;2022-11-09T10:39:59;1.65;;;0.70;;
31746;SDS011;18319;48.974;8.462;2022-11-09T10:42:27;2.75;;;0.63;;
31746;SDS011;18319;48.974;8.462;2022-11-09T10:44:54;1.02;;;0.80;;
31746;SDS011;18319;48.974;8.462;2022-11-09T10:47:21;0.90;;;0.90;;
31746;SDS011;18319;48.974;8.462;2022-11-09T10:50:04;0.70;;;0.70;;
31746;SDS011;18319;48.974;8.462;2022-11-09T10:52:32;0.70;;;0.70;;
31746;SDS011;18319;48.974;8.462;2022-11-09T10:55:24;2.42;;;0.60;;
31746;SDS011;18319;48.974;8.462;2022-11-09T10:57:52;2.38;;;0.80;;
31746;SDS011;18319;48.974;8.462;2022-11-09T11:00:20;3.33;;;0.60;;
31746;SDS011;18319;48.974;8.462;2022-11-09T11:02:47;0.70;;;0.70;;
31746;SDS011;18319;48.974;8.462;2022-11-09T11:05:24;4.00;;;0.82;;
31746;SDS011;18319;48.974;8.462;2022-11-09T11:07:52;1.73;;;0.80;;
31746;SDS011;18319;48.974;8.462;2022-11-09T11:10:19;1.08;;;0.98;;
31746;SDS011;18319;48.974;8.462;2022-11-09T11:12:50;0.90;;;0.70;;
31746;SDS011;18319;48.974;8.462;2022-11-09T11:15:20;1.88;;;0.80;;
31746;SDS011;18319;48.974;8.462;2022-11-09T11:17:48;0.50;;;0.50;;
31746;SDS011;18319;48.974;8.462;2022-11-09T11:20:27;0.95;;;0.68;;
31746;SDS011;18319;48.974;8.462;2022-11-09T11:23:06;1.90;;;0.93;;
31746;SDS011;18319;48.974;8.462;2022-11-09T11:25:37;0.90;;;0.57;;
31746;SDS011;18319;48.974;8.462;2022-11-09T11:28:10;0.80;;;0.77;;
31746;SDS011;18319;48.974;8.462;2022-11-09T11:30:41;1.45;;;0.80;;
31746;SDS011;18319;48.974;8.462;2022-11-09T11:33:10;0.70;;;0.68;;
31746;SDS011;18319;48.974;8.462;2022-11-09T11:35:42;1.02;;;0.80;;
31746;SDS011;18319;48.974;8.462;2022-11-09T11:38:15;3.53;;;1.08;;
31746;SDS011;18319;48.974;8.462;2022-11-09T11:40:50;1.00;;;1.00;;
31746;SDS011;18319;48.974;8.462;2022-11-09T11:43:28;1.80;;;1.70;;
31746;SDS011;18319;48.974;8.462;2022-11-09T11:46:02;1.48;;;0.70;;
31746;SDS011;18319;48.974;8.462;2022-11-09T11:51:26;3.13;;;0.73;;
31746;SDS011;18319;48.974;8.462;2022-11-09T11:54:06;0.70;;;0.70;;
31746;SDS011;18319;48.974;8.462;2022-11-09T11:56:44;1.92;;;0.90;;
31746;SDS011;18319;48.974;8.462;2022-11-09T12:02:20;0.90;;;0.90;;
31746;SDS011;18319;48.974;8.462;2022-11-09T12:05:02;2.90;;;0.90;;
31746;SDS011;18319;48.974;8.462;2022-11-09T12:07:53;2.28;;;1.20;;
31746;SDS011;18319;48.974;8.462;2022-11-09T12:10:27;1.08;;;0.88;;
31746;SDS011;18319;48.974;8.462;2022-11-09T12:13:00;1.70;;;0.90;;
31746;SDS011;18319;48.974;8.462;2022-11-09T12:15:37;2.95;;;2.00;;
31746;SDS011;18319;48.974;8.462;2022-11-09T12:18:09;2.53;;;1.30;;
31746;SDS011;18319;48.974;8.462;2022-11-09T12:20:41;3.08;;;1.30;;
31746;SDS011;18319;48.974;8.462;2022-11-09T12:23:16;2.22;;;1.20;;
31746;SDS011;18319;48.974;8.462;2022-11-09T12:25:50;1.33;;;1.23;;
31746;SDS011;18319;48.974;8.462;2022-11-09T12:28:28;1.02;;;0.93;;
31746;SDS011;18319;48.974;8.462;2022-11-09T12:31:03;1.67;;;0.80;;
31746;SDS011;18319;48.974;8.462;2022-11-09T12:33:39;1.70;;;1.00;;
31746;SDS011;18319;48.974;8.462;2022-11-09T12:36:10;1.90;;;0.90;;
31746;SDS011;18319;48.974;8.462;2022-11-09T12:38:45;1.33;;;1.13;;
31746;SDS011;18319;48.974;8.462;2022-11-09T12:41:19;1.50;;;1.00;;
31746;SDS011;18319;48.974;8.462;2022-11-09T12:43:48;2.08;;;1.10;;
31746;SDS011;18319;48.974;8.462;2022-11-09T12:46:16;1.42;;;1.25;;
31746;SDS011;18319;48.974;8.462;2022-11-09T12:48:44;1.88;;;1.40;;
31746;SDS011;18319;48.974;8.462;2022-11-09T12:51:13;4.35;;;1.30;;
31746;SDS011;18319;48.974;8.462;2022-11-09T12:53:42;2.28;;;1.42;;
31746;SDS011;18319;48.974;8.462;2022-11-09T12:56:09;1.27;;;0.90;;
31746;SDS011;18319;48.974;8.462;2022-11-09T12:58:39;1.90;;;1.00;;
31746;SDS011;18319;48.974;8.462;2022-11-09T13:01:09;2.75;;;1.85;;
31746;SDS011;18319;48.974;8.462;2022-11-09T13:03:37;1.40;;;1.13;;
31746;SDS011;18319;48.974;8.462;2022-11-09T13:06:16;1.63;;;1.30;;
31746;SDS011;18319;48.974;8.462;2022-11-09T13:08:54;2.20;;;1.35;;
31746;SDS011;18319;48.974;8.462;2022-11-09T13:11:24;4.10;;;1.63;;
31746;SDS011;18319;48.974;8.462;2022-11-09T13:13:51;3.05;;;1.42;;
31746;SDS011;18319;48.974;8.462;2022-11-09T13:16:38;1.88;;;1.05;;
31746;SDS011;18319;48.974;8.462;2022-11-09T13:19:05;2.00;;;1.52;;
31746;SDS011;18319;48.974;8.462;2022-11-09T13:21:37;1.58;;;1.40;;
31746;SDS011;18319;48.974;8.462;2022-11-09T13:27:38;1.92;;;1.77;;
31746;SDS011;18319;48.974;8.462;2022-11-09T13:33:17;3.75;;;1.88;;
31746;SDS011;18319;48.974;8.462;2022-11-09T13:35:56;3.63;;;1.70;;
31746;SDS011;18319;48.974;8.462;2022-11-09T13:38:25;3.00;;;1.20;;
31746;SDS011;18319;48.974;8.462;2022-11-09T13:40:52;1.77;;;1.67;;
31746;SDS011;18319;48.974;8.462;2022-11-09T13:43:23;1.67;;;1.58;;
31746;SDS011;18319;48.974;8.462;2022-11-09T13:45:51;3.63;;;1.58;;
31746;SDS011;18319;48.974;8.462;2022-11-09T13:48:32;2.72;;;1.67;;
31746;SDS011;18319;48.974;8.462;2022-11-09T13:51:03;2.80;;;1.30;;
31746;SDS011;18319;48.974;8.462;2022-11-09T13:53:46;2.03;;;1.88;;
31746;SDS011;18319;48.974;8.462;2022-11-09T13:56:18;2.67;;;1.17;;
31746;SDS011;18319;48.974;8.462;2022-11-09T13:58:50;1.98;;;1.45;;
31746;SDS011;18319;48.974;8.462;2022-11-09T14:01:26;1.38;;;1.27;;
31746;SDS011;18319;48.974;8.462;2022-11-09T14:03:54;2.17;;;1.48;;
31746;SDS011;18319;48.974;8.462;2022-11-09T14:06:22;1.23;;;1.10;;
31746;SDS011;18319;48.974;8.462;2022-11-09T14:08:49;1.33;;;1.23;;
31746;SDS011;18319;48.974;8.462;2022-11-09T14:11:29;2.13;;;1.52;;
31746;SDS011;18319;48.974;8.462;2022-11-09T14:14:10;2.63;;;2.53;;
31746;SDS011;18319;48.974;8.462;2022-11-09T14:16:45;1.67;;;1.58;;
31746;SDS011;18319;48.974;8.462;2022-11-09T14:19:25;1.83;;;1.23;;
31746;SDS011;18319;48.974;8.462;2022-11-09T14:21:54;1.52;;;1.42;;
31746;SDS011;18319;48.974;8.462;2022-11-09T14:24:21;1.65;;;1.55;;
31746;SDS011;18319;48.974;8.462;2022-11-09T14:26:59;2.47;;;2.38;;
31746;SDS011;18319;48.974;8.462;2022-11-09T14:29:28;1.40;;;1.30;;
31746;SDS011;18319;48.974;8.462;2022-11-09T14:31:57;2.83;;;1.48;;
31746;SDS011;18319;48.974;8.462;2022-11-09T14:34:24;2.53;;;2.38;;
31746;SDS011;18319;48.974;8.462;2022-11-09T14:36:52;2.20;;;2.10;;
31746;SDS011;18319;48.974;8.462;2022-11-09T14:39:22;1.70;;;1.60;;
31746;SDS011;18319;48.974;8.462;2022-11-09T14:41:49;1.35;;;1.30;;
31746;SDS011;18319;48.974;8.462;2022-11-09T14:44:19;4.20;;;1.88;;
31746;SDS011;18319;48.974;8.462;2022-11-09T14:46:52;1.88;;;1.77;;
31746;SDS011;18319;48.974;8.462;2022-11-09T14:49:20;3.13;;;1.70;;
31746;SDS011;18319;48.974;8.462;2022-11-09T14:51:47;2.17;;;1.98;;
31746;SDS011;18319;48.974;8.462;2022-11-09T14:54:15;1.50;;;1.40;;
31746;SDS011;18319;48.974;8.462;2022-11-09T14:56:43;1.65;;;1.55;;
31746;SDS011;18319;48.974;8.462;2022-11-09T14:59:12;2.08;;;1.88;;
31746;SDS011;18319;48.974;8.462;2022-11-09T15:01:40;3.45;;;1.50;;
31746;SDS011;18319;48.974;8.462;2022-11-09T15:04:22;1.50;;;1.25;;
31746;SDS011;18319;48.974;8.462;2022-11-09T15:06:51;2.05;;;1.90;;
31746;SDS011;18319;48.974;8.462;2022-11-09T15:09:20;1.48;;;1.38;;
31746;SDS011;18319;48.974;8.462;2022-11-09T15:11:48;2.10;;;1.40;;
31746;SDS011;18319;48.974;8.462;2022-11-09T15:14:20;1.45;;;1.35;;
31746;SDS011;18319;48.974;8.462;2022-11-09T15:16:55;1.35;;;1.25;;
31746;SDS011;18319;48.974;8.462;2022-11-09T15:19:26;3.22;;;1.50;;